createdAt,value
2018-06-10T00:01:24.631Z,18.56
2018-06-10T00:03:52.948Z,18.54
2018-06-10T00:06:21.277Z,18.53
2018-06-10T00:08:50.396Z,18.72
2018-06-10T00:11:19.712Z,18.63
2018-06-10T00:13:48.038Z,18.56
2018-06-10T00:16:17.399Z,18.49
2018-06-10T00:18:45.725Z,18.41
2018-06-10T00:21:14.997Z,18.51
2018-06-10T00:23:43.329Z,18.60
2018-06-10T00:26:11.645Z,18.54
2018-06-10T00:29:43.514Z,18.49
2018-06-10T00:32:12.917Z,18.44
2018-06-10T00:34:41.237Z,18.34
2018-06-10T00:37:10.474Z,18.29
2018-06-10T00:39:38.793Z,18.38
2018-06-10T00:42:08.098Z,18.23
2018-06-10T00:44:37.424Z,18.14
2018-06-10T00:47:05.736Z,18.08
2018-06-10T00:49:34.096Z,18.04
2018-06-10T00:52:03.387Z,18.01
2018-06-10T00:54:31.699Z,17.99
2018-06-10T00:57:00.021Z,17.97
2018-06-10T00:59:28.354Z,17.95
2018-06-10T01:01:56.667Z,17.88
2018-06-10T01:04:24.980Z,17.87
2018-06-10T01:06:53.297Z,17.85
2018-06-10T01:09:21.622Z,17.85
2018-06-10T01:11:49.949Z,17.81
2018-06-10T01:14:18.282Z,17.76
2018-06-10T01:16:46.592Z,17.70
2018-06-10T01:19:14.932Z,17.66
2018-06-10T01:21:43.250Z,17.63
2018-06-10T01:24:11.568Z,17.62
2018-06-10T01:26:45.217Z,17.62
2018-06-10T01:29:13.530Z,17.63
2018-06-10T01:31:41.849Z,17.64
2018-06-10T01:34:10.166Z,17.69
2018-06-10T01:36:38.480Z,17.74
2018-06-10T01:39:07.081Z,17.78
2018-06-10T01:41:35.501Z,17.79
2018-06-10T01:44:03.809Z,17.76
2018-06-10T01:46:32.123Z,17.86
2018-06-10T01:49:00.551Z,17.77
2018-06-10T01:51:28.866Z,17.67
2018-06-10T01:53:57.180Z,17.66
2018-06-10T01:56:25.501Z,17.64
2018-06-10T01:58:53.813Z,17.61
2018-06-10T02:01:22.124Z,17.61
2018-06-10T02:03:50.437Z,17.59
2018-06-10T02:06:18.793Z,17.56
2018-06-10T02:08:47.115Z,17.52
2018-06-10T02:11:15.494Z,17.48
2018-06-10T02:13:43.817Z,17.47
2018-06-10T02:16:12.140Z,17.53
2018-06-10T02:18:40.446Z,17.54
2018-06-10T02:21:09.651Z,17.55
2018-06-10T02:23:37.972Z,17.64
2018-06-10T02:26:07.334Z,17.69
2018-06-10T02:28:35.697Z,17.66
2018-06-10T02:31:05.015Z,17.82
2018-06-10T02:33:34.019Z,17.80
2018-06-10T02:36:02.332Z,17.73
2018-06-10T02:38:30.656Z,17.68
2018-06-10T02:40:58.981Z,17.69
2018-06-10T02:43:28.162Z,17.68
2018-06-10T02:45:56.524Z,17.65
2018-06-10T02:48:25.729Z,17.68
2018-06-10T02:50:54.952Z,17.69
2018-06-10T02:53:24.106Z,17.71
2018-06-10T02:55:52.466Z,17.84
2018-06-10T02:58:21.790Z,17.86
2018-06-10T03:00:50.162Z,17.88
2018-06-10T03:03:19.278Z,17.90
2018-06-10T03:05:48.626Z,17.94
2018-06-10T03:08:16.941Z,17.98
2018-06-10T03:10:46.317Z,18.02
2018-06-10T03:13:15.585Z,18.07
2018-06-10T03:15:43.936Z,18.12
2018-06-10T03:18:13.114Z,18.35
2018-06-10T03:20:42.349Z,18.34
2018-06-10T03:23:11.569Z,18.44
2018-06-10T03:25:39.879Z,18.46
2018-06-10T03:28:08.227Z,18.51
2018-06-10T03:30:37.426Z,18.48
2018-06-10T03:33:05.741Z,18.48
2018-06-10T03:35:34.924Z,18.48
2018-06-10T03:38:03.253Z,18.64
2018-06-10T03:40:31.561Z,18.88
2018-06-10T03:42:59.903Z,18.91
2018-06-10T03:45:28.232Z,18.93
2018-06-10T03:47:56.575Z,18.96
2018-06-10T03:50:24.930Z,18.92
2018-06-10T03:52:53.284Z,19.01
2018-06-10T03:55:22.631Z,19.03
2018-06-10T03:57:50.932Z,19.23
2018-06-10T04:00:19.245Z,19.22
2018-06-10T04:02:48.587Z,19.27
2018-06-10T04:05:17.905Z,19.46
2018-06-10T04:07:46.256Z,19.60
2018-06-10T04:10:15.457Z,19.58
2018-06-10T04:12:44.818Z,19.54
2018-06-10T04:15:14.001Z,19.56
2018-06-10T04:17:42.355Z,19.51
2018-06-10T04:20:11.595Z,19.58
2018-06-10T04:22:39.951Z,19.62
2018-06-10T04:25:09.302Z,19.71
2018-06-10T04:27:38.687Z,19.68
2018-06-10T04:30:07.882Z,19.68
2018-06-10T04:32:37.136Z,19.68
2018-06-10T04:35:05.478Z,19.65
2018-06-10T04:37:34.665Z,19.60
2018-06-10T04:40:04.012Z,19.58
2018-06-10T04:42:33.309Z,19.53
2018-06-10T04:45:01.614Z,19.55
2018-06-10T04:47:30.868Z,19.62
2018-06-10T04:49:59.171Z,19.74
2018-06-10T04:52:28.537Z,19.77
2018-06-10T04:54:56.852Z,19.79
2018-06-10T04:57:25.152Z,19.88
2018-06-10T04:59:53.469Z,19.99
2018-06-10T05:02:21.782Z,20.28
2018-06-10T05:04:50.122Z,20.35
2018-06-10T05:07:18.437Z,20.51
2018-06-10T05:09:46.737Z,20.63
2018-06-10T05:12:15.045Z,20.51
2018-06-10T05:14:43.397Z,20.52
2018-06-10T05:17:11.741Z,20.65
2018-06-10T05:19:40.089Z,20.71
2018-06-10T05:22:08.426Z,20.87
2018-06-10T05:24:36.736Z,20.69
2018-06-10T05:27:05.985Z,20.80
2018-06-10T05:29:34.300Z,20.80
2018-06-10T05:32:03.657Z,20.72
2018-06-10T05:34:32.015Z,20.77
2018-06-10T05:37:01.202Z,20.90
2018-06-10T05:39:29.627Z,20.97
2018-06-10T05:41:57.933Z,21.00
2018-06-10T05:44:26.237Z,20.90
2018-06-10T05:46:54.545Z,20.89
2018-06-10T05:49:22.877Z,21.03
2018-06-10T05:51:51.186Z,21.19
2018-06-10T05:54:19.509Z,21.34
2018-06-10T05:56:48.706Z,21.55
2018-06-10T05:59:17.014Z,21.46
2018-06-10T06:01:46.201Z,21.46
2018-06-10T06:04:15.053Z,21.45
2018-06-10T06:06:43.369Z,21.68
2018-06-10T06:09:11.676Z,21.68
2018-06-10T06:11:40.064Z,21.66
2018-06-10T06:14:08.386Z,22.05
2018-06-10T06:16:36.732Z,22.14
2018-06-10T06:19:06.106Z,22.36
2018-06-10T06:21:34.430Z,22.61
2018-06-10T06:24:02.748Z,22.52
2018-06-10T06:26:31.089Z,22.61
2018-06-10T06:29:00.402Z,22.83
2018-06-10T06:31:28.708Z,22.81
2018-06-10T06:33:57.031Z,22.89
2018-06-10T06:36:25.391Z,22.78
2018-06-10T06:38:54.695Z,22.87
2018-06-10T06:41:23.057Z,22.79
2018-06-10T06:43:52.297Z,22.73
2018-06-10T06:46:22.124Z,22.73
2018-06-10T06:48:51.493Z,22.90
2018-06-10T06:51:20.692Z,23.00
2018-06-10T06:53:50.044Z,23.45
2018-06-10T06:56:19.268Z,23.71
2018-06-10T06:58:48.509Z,23.87
2018-06-10T07:01:16.842Z,24.11
2018-06-10T07:03:46.197Z,24.24
2018-06-10T07:06:15.560Z,24.23
2018-06-10T07:08:44.910Z,24.30
2018-06-10T07:11:14.137Z,24.32
2018-06-10T07:13:43.378Z,24.42
2018-06-10T07:16:12.386Z,24.49
2018-06-10T07:18:41.593Z,24.65
2018-06-10T07:21:10.952Z,24.74
2018-06-10T07:23:40.186Z,24.91
2018-06-10T07:26:09.404Z,24.86
2018-06-10T07:28:38.668Z,24.96
2018-06-10T07:31:06.989Z,25.05
2018-06-10T07:33:35.822Z,25.10
2018-06-10T07:36:04.184Z,24.88
2018-06-10T07:38:33.376Z,25.00
2018-06-10T07:41:01.677Z,24.96
2018-06-10T07:43:30.985Z,24.69
2018-06-10T07:45:59.299Z,24.85
2018-06-10T07:48:28.669Z,24.64
2018-06-10T07:50:56.985Z,24.75
2018-06-10T07:53:25.323Z,24.83
2018-06-10T07:55:53.632Z,24.96
2018-06-10T07:58:22.869Z,24.81
2018-06-10T08:00:51.168Z,24.92
2018-06-10T08:03:19.519Z,24.99
2018-06-10T08:05:48.834Z,24.89
2018-06-10T08:08:18.054Z,24.89
2018-06-10T08:10:47.281Z,25.07
2018-06-10T08:13:16.477Z,25.01
2018-06-10T08:15:45.833Z,25.27
2018-06-10T08:18:15.113Z,25.44
2018-06-10T08:20:44.440Z,25.53
2018-06-10T08:23:12.765Z,25.45
2018-06-10T08:25:41.097Z,25.57
2018-06-10T08:28:09.418Z,25.77
2018-06-10T08:30:37.725Z,25.79
2018-06-10T08:33:06.073Z,26.00
2018-06-10T08:35:34.384Z,26.02
2018-06-10T08:38:02.716Z,26.08
2018-06-10T08:40:31.025Z,26.30
2018-06-10T08:42:59.343Z,26.37
2018-06-10T08:45:27.660Z,26.48
2018-06-10T08:47:55.969Z,26.63
2018-06-10T08:50:24.280Z,26.74
2018-06-10T08:52:53.370Z,26.93
2018-06-10T08:55:21.718Z,27.07
2018-06-10T08:57:50.080Z,27.34
2018-06-10T09:00:18.406Z,27.38
2018-06-10T09:02:46.840Z,27.36
2018-06-10T09:05:15.909Z,27.49
2018-06-10T09:07:44.216Z,27.72
2018-06-10T09:10:12.540Z,27.67
2018-06-10T09:12:41.860Z,27.74
2018-06-10T09:15:10.173Z,27.85
2018-06-10T09:17:38.478Z,27.78
2018-06-10T09:20:06.786Z,27.88
2018-06-10T09:22:35.104Z,27.94
2018-06-10T09:25:03.428Z,27.94
2018-06-10T09:27:31.745Z,27.79
2018-06-10T09:30:00.057Z,27.83
2018-06-10T09:32:28.376Z,28.06
2018-06-10T09:34:56.685Z,28.02
2018-06-10T09:37:24.996Z,28.13
2018-06-10T09:39:53.366Z,28.01
2018-06-10T09:42:21.686Z,28.08
2018-06-10T09:44:50.036Z,28.16
2018-06-10T09:47:18.344Z,28.17
2018-06-10T09:49:46.741Z,28.06
2018-06-10T09:52:15.037Z,27.96
2018-06-10T09:54:43.345Z,28.28
2018-06-10T09:57:11.640Z,28.13
2018-06-10T09:59:40.965Z,28.32
2018-06-10T10:02:09.323Z,28.31
2018-06-10T10:04:37.636Z,28.41
2018-06-10T10:07:05.947Z,28.39
2018-06-10T10:09:34.281Z,28.46
2018-06-10T10:12:02.642Z,28.86
2018-06-10T10:14:31.007Z,28.91
2018-06-10T10:16:59.346Z,29.03
2018-06-10T10:19:27.940Z,28.69
2018-06-10T10:21:56.245Z,28.72
2018-06-10T10:24:24.545Z,28.68
2018-06-10T10:26:53.724Z,28.88
2018-06-10T10:29:22.067Z,29.08
2018-06-10T10:31:50.480Z,29.33
2018-06-10T10:34:18.776Z,29.61
2018-06-10T10:36:47.177Z,29.92
2018-06-10T10:39:16.493Z,30.21
2018-06-10T10:41:44.851Z,30.30
2018-06-10T10:44:14.172Z,29.98
2018-06-10T10:46:43.528Z,29.88
2018-06-10T10:49:12.877Z,29.54
2018-06-10T10:51:42.088Z,29.58
2018-06-10T10:54:11.372Z,29.33
2018-06-10T10:56:40.700Z,29.46
2018-06-10T10:59:09.888Z,29.61
2018-06-10T11:01:38.212Z,29.71
2018-06-10T11:04:07.541Z,29.67
2018-06-10T11:06:36.744Z,29.92
2018-06-10T11:09:07.777Z,30.06
2018-06-10T11:11:37.104Z,30.38
2018-06-10T11:14:06.466Z,30.48
2018-06-10T11:16:35.792Z,30.49
2018-06-10T11:19:05.161Z,30.79
2018-06-10T11:21:34.279Z,30.84
2018-06-10T11:24:02.645Z,30.53
2018-06-10T11:26:31.837Z,30.53
2018-06-10T11:29:01.206Z,30.19
2018-06-10T11:31:30.610Z,29.71
2018-06-10T11:33:59.817Z,29.52
2018-06-10T11:36:29.109Z,29.63
2018-06-10T11:38:58.344Z,29.35
2018-06-10T11:41:27.592Z,29.21
2018-06-10T11:43:56.834Z,29.14
2018-06-10T11:46:25.150Z,29.22
2018-06-10T11:48:54.512Z,29.11
2018-06-10T11:51:23.817Z,29.24
2018-06-10T11:53:53.172Z,28.97
2018-06-10T11:56:21.836Z,28.89
2018-06-10T11:58:51.018Z,28.79
2018-06-10T12:01:20.385Z,28.68
2018-06-10T12:03:49.581Z,28.56
2018-06-10T12:06:18.861Z,28.59
2018-06-10T12:08:48.170Z,28.34
2018-06-10T12:11:17.485Z,28.09
2018-06-10T12:13:45.849Z,27.99
2018-06-10T12:16:14.137Z,27.83
2018-06-10T12:18:42.452Z,27.54
2018-06-10T12:21:10.773Z,27.33
2018-06-10T12:23:39.125Z,26.87
2018-06-10T12:26:07.437Z,26.11
2018-06-10T12:31:15.348Z,23.78
2018-06-10T12:33:43.678Z,22.94
2018-06-10T12:36:12.004Z,22.81
2018-06-10T12:38:40.398Z,22.60
2018-06-10T12:41:08.721Z,22.51
2018-06-10T12:43:37.045Z,22.43
2018-06-10T12:46:05.620Z,22.31
2018-06-10T12:48:33.942Z,22.11
2018-06-10T12:51:03.150Z,22.16
2018-06-10T12:53:32.332Z,22.03
2018-06-10T12:56:00.680Z,21.66
2018-06-10T12:58:28.996Z,21.13
2018-06-10T13:00:57.361Z,20.98
2018-06-10T13:03:25.676Z,20.91
2018-06-10T13:05:53.989Z,21.27
2018-06-10T13:08:22.336Z,21.24
2018-06-10T13:10:50.661Z,21.44
2018-06-10T13:13:18.978Z,21.92
2018-06-10T13:15:47.300Z,22.44
2018-06-10T13:18:15.655Z,23.43
2018-06-10T13:20:43.964Z,24.31
2018-06-10T13:23:12.324Z,25.20
2018-06-10T13:25:40.644Z,25.77
2018-06-10T13:28:08.958Z,25.67
2018-06-10T13:30:38.157Z,25.34
2018-06-10T13:33:06.470Z,25.69
2018-06-10T13:35:34.788Z,25.78
2018-06-10T13:38:03.100Z,25.55
2018-06-10T13:40:31.433Z,25.17
2018-06-10T13:42:59.748Z,25.26
2018-06-10T13:45:28.104Z,25.38
2018-06-10T13:47:57.302Z,25.78
2018-06-10T13:50:25.646Z,26.06
2018-06-10T13:52:54.956Z,25.99
2018-06-10T13:55:24.154Z,25.79
2018-06-10T13:57:52.479Z,25.65
2018-06-10T14:00:20.781Z,25.39
2018-06-10T14:02:49.132Z,25.13
2018-06-10T14:05:17.437Z,24.96
2018-06-10T14:07:46.540Z,24.64
2018-06-10T14:10:15.689Z,24.53
2018-06-10T14:12:44.877Z,24.42
2018-06-10T14:15:14.069Z,24.13
2018-06-10T14:17:43.357Z,23.93
2018-06-10T14:20:11.750Z,23.51
2018-06-10T14:22:41.061Z,23.42
2018-06-10T14:25:09.424Z,23.16
2018-06-10T14:27:38.821Z,23.02
2018-06-10T14:30:07.904Z,22.86
2018-06-10T14:32:36.216Z,22.74
2018-06-10T14:35:04.665Z,22.55
2018-06-10T14:37:33.071Z,22.34
2018-06-10T14:40:02.461Z,22.27
2018-06-10T14:42:31.177Z,22.12
2018-06-10T14:44:59.486Z,21.82
2018-06-10T14:47:28.693Z,21.68
2018-06-10T14:49:58.009Z,21.54
2018-06-10T14:52:27.210Z,21.49
2018-06-10T14:54:56.470Z,21.41
2018-06-10T14:57:25.696Z,21.48
2018-06-10T14:59:54.045Z,21.37
2018-06-10T15:02:22.712Z,21.05
2018-06-10T15:04:51.032Z,20.70
2018-06-10T15:07:19.405Z,20.50
2018-06-10T15:09:48.667Z,20.66
2018-06-10T15:12:17.021Z,20.44
2018-06-10T15:14:45.340Z,20.42
2018-06-10T15:17:14.648Z,20.31
2018-06-10T15:19:42.969Z,20.38
2018-06-10T15:22:12.253Z,20.63
2018-06-10T15:24:41.591Z,20.39
2018-06-10T15:27:10.041Z,20.29
2018-06-10T15:29:38.413Z,20.33
2018-06-10T15:32:06.764Z,20.20
2018-06-10T15:34:35.136Z,20.30
2018-06-10T15:37:03.606Z,20.47
2018-06-10T15:39:31.921Z,20.59
2018-06-10T15:42:00.353Z,20.49
2018-06-10T15:44:28.796Z,20.58
2018-06-10T15:46:57.356Z,21.10
2018-06-10T15:49:25.782Z,21.18
2018-06-10T15:51:54.108Z,21.57
2018-06-10T15:54:22.426Z,22.31
2018-06-10T15:56:50.751Z,22.98
2018-06-10T15:59:19.707Z,23.54
2018-06-10T16:01:48.941Z,24.18
2018-06-10T16:04:18.196Z,24.62
2018-06-10T16:07:00.614Z,24.49
2018-06-10T16:09:29.989Z,24.80
2018-06-10T16:11:59.414Z,25.18
2018-06-10T16:14:27.833Z,24.80
2018-06-10T16:16:57.287Z,24.65
2018-06-10T16:19:25.698Z,24.71
2018-06-10T16:21:55.021Z,24.81
2018-06-10T16:24:23.373Z,24.67
2018-06-10T16:26:52.754Z,24.45
2018-06-10T16:29:21.150Z,24.08
2018-06-10T16:31:52.110Z,23.75
2018-06-10T16:34:20.488Z,23.57
2018-06-10T16:36:49.684Z,23.43
2018-06-10T16:39:18.026Z,23.20
2018-06-10T16:41:46.352Z,22.81
2018-06-10T16:44:14.806Z,22.57
2018-06-10T16:46:43.180Z,22.41
2018-06-10T16:49:11.621Z,22.30
2018-06-10T16:51:39.937Z,22.19
2018-06-10T16:54:08.324Z,22.20
2018-06-10T16:56:36.644Z,22.11
2018-06-10T16:59:05.103Z,22.07
2018-06-10T17:01:33.466Z,22.32
2018-06-10T17:04:01.854Z,22.06
2018-06-10T17:06:30.185Z,21.94
2018-06-10T17:08:58.599Z,21.83
2018-06-10T17:11:26.933Z,21.66
2018-06-10T17:13:55.396Z,21.58
2018-06-10T17:16:24.609Z,21.51
2018-06-10T17:18:53.949Z,21.75
2018-06-10T17:21:22.325Z,21.83
2018-06-10T17:23:50.641Z,21.62
2018-06-10T17:26:19.053Z,21.39
2018-06-10T17:28:47.477Z,21.21
2018-06-10T17:31:15.858Z,21.12
2018-06-10T17:33:44.243Z,21.17
2018-06-10T17:36:12.674Z,21.08
2018-06-10T17:38:41.049Z,21.09
2018-06-10T17:41:09.393Z,20.87
2018-06-10T17:43:37.767Z,20.80
2018-06-10T17:46:06.390Z,20.83
2018-06-10T17:48:34.830Z,20.68
2018-06-10T17:51:03.204Z,20.86
2018-06-10T17:53:32.514Z,20.65
2018-06-10T17:56:00.934Z,20.65
2018-06-10T17:58:29.268Z,20.56
2018-06-10T18:00:57.661Z,20.53
2018-06-10T18:03:25.991Z,20.58
2018-06-10T18:05:54.409Z,20.64
2018-06-10T18:08:23.781Z,20.46
2018-06-10T18:10:53.029Z,20.50
2018-06-10T18:13:22.362Z,20.46
2018-06-10T18:15:51.552Z,20.42
2018-06-10T18:18:20.417Z,20.42
2018-06-10T18:20:49.863Z,20.53
2018-06-10T18:23:19.328Z,20.64
2018-06-10T18:25:47.669Z,20.68
2018-06-10T18:28:16.945Z,20.71
2018-06-10T18:30:46.396Z,20.82
2018-06-10T18:33:15.978Z,20.92
2018-06-10T18:35:46.129Z,20.84
2018-06-10T18:38:15.217Z,20.94
2018-06-10T18:40:46.714Z,20.88
2018-06-10T18:43:16.209Z,20.86
2018-06-10T18:45:46.754Z,20.72
2018-06-10T18:48:17.109Z,20.60
2018-06-10T18:50:46.337Z,20.61
2018-06-10T18:53:15.011Z,20.59
2018-06-10T18:55:44.177Z,20.44
2018-06-10T18:58:14.633Z,20.43
2018-06-10T19:00:46.801Z,20.36
2018-06-10T19:03:18.826Z,20.34
2018-06-10T19:05:49.815Z,20.25
2018-06-10T19:08:21.899Z,20.14
2018-06-10T19:10:53.145Z,20.07
2018-06-10T19:13:23.550Z,20.01
2018-06-10T19:15:54.182Z,19.94
2018-06-10T19:18:24.352Z,19.97
2018-06-10T19:20:53.422Z,19.93
2018-06-10T19:23:23.973Z,19.92
2018-06-10T19:25:54.035Z,19.94
2018-06-10T19:28:24.539Z,19.93
2018-06-10T19:30:54.557Z,19.93
2018-06-10T19:33:25.017Z,19.92
2018-06-10T19:35:55.338Z,19.94
2018-06-10T19:38:25.178Z,19.90
2018-06-10T19:40:54.766Z,19.90
2018-06-10T19:43:24.074Z,19.88
2018-06-10T19:45:53.526Z,19.88
2018-06-10T19:48:22.014Z,19.88
2018-06-10T19:50:57.672Z,19.88
2018-06-10T19:53:26.289Z,19.86
2018-06-10T19:55:54.724Z,19.89
2018-06-10T19:58:23.598Z,19.94
2018-06-10T20:00:52.181Z,19.90
2018-06-10T20:03:20.734Z,19.86
2018-06-10T20:05:49.201Z,19.88
2018-06-10T20:08:17.683Z,19.79
2018-06-10T20:10:46.128Z,19.84
2018-06-10T20:13:14.634Z,19.79
2018-06-10T20:15:42.985Z,19.74
2018-06-10T20:18:11.326Z,19.64
2018-06-10T20:20:39.666Z,19.59
2018-06-10T20:23:08.105Z,19.56
2018-06-10T20:25:37.710Z,19.49
2018-06-10T20:28:06.618Z,19.49
2018-06-10T20:30:35.050Z,19.41
2018-06-10T20:33:03.772Z,19.36
2018-06-10T20:35:33.109Z,19.40
2018-06-10T20:38:01.445Z,19.28
2018-06-10T20:40:29.785Z,19.25
2018-06-10T20:42:59.595Z,19.17
2018-06-10T20:45:28.844Z,19.14
2018-06-10T20:47:58.065Z,19.16
2018-06-10T20:50:26.389Z,19.23
2018-06-10T20:52:54.739Z,19.14
2018-06-10T20:55:23.304Z,19.12
2018-06-10T20:57:51.680Z,19.22
2018-06-10T21:00:20.319Z,19.25
2018-06-10T21:02:49.684Z,19.28
2018-06-10T21:05:18.970Z,19.38
2018-06-10T21:07:49.315Z,19.36
2018-06-10T21:10:18.249Z,19.38
2018-06-10T21:12:46.950Z,19.49
2018-06-10T21:15:15.460Z,19.52
2018-06-10T21:17:43.825Z,19.44
2018-06-10T21:20:12.197Z,19.47
2018-06-10T21:22:41.058Z,19.54
2018-06-10T21:25:09.498Z,19.39
2018-06-10T21:27:37.850Z,19.35
2018-06-10T21:30:07.126Z,19.32
2018-06-10T21:32:35.451Z,19.27
2018-06-10T21:35:03.905Z,19.23
2018-06-10T21:37:32.320Z,19.17
2018-06-10T21:40:00.649Z,19.08
2018-06-10T21:42:29.073Z,19.09
2018-06-10T21:44:57.416Z,19.05
2018-06-10T21:47:26.806Z,19.00
2018-06-10T21:49:56.188Z,18.94
2018-06-10T21:52:26.143Z,18.90
2018-06-10T21:54:55.389Z,18.84
2018-06-10T21:57:23.917Z,18.82
2018-06-10T21:59:53.211Z,18.73
2018-06-10T22:02:22.428Z,18.68
2018-06-10T22:04:51.267Z,18.63
2018-06-10T22:07:19.637Z,18.58
2018-06-10T22:09:48.993Z,18.55
2018-06-10T22:12:18.321Z,18.63
2018-06-10T22:14:47.681Z,18.52
2018-06-10T22:17:16.876Z,18.45
2018-06-10T22:19:46.241Z,18.40
2018-06-10T22:22:15.472Z,18.44
2018-06-10T22:24:43.797Z,18.31
2018-06-10T22:27:13.056Z,18.33
2018-06-10T22:29:42.360Z,18.39
2018-06-10T22:32:10.697Z,18.26
2018-06-10T22:34:39.045Z,18.20
2018-06-10T22:37:07.504Z,18.15
2018-06-10T22:39:36.912Z,18.11
2018-06-10T22:42:05.393Z,18.11
2018-06-10T22:44:33.723Z,18.11
2018-06-10T22:47:02.113Z,18.13
2018-06-10T22:49:31.348Z,18.04
2018-06-10T22:52:00.713Z,18.01
2018-06-10T22:54:42.393Z,17.98
2018-06-10T22:57:11.807Z,17.96
2018-06-10T22:59:41.056Z,17.92
2018-06-10T23:02:10.125Z,17.95
2018-06-10T23:04:38.457Z,17.85
2018-06-10T23:07:06.789Z,17.90
2018-06-10T23:09:35.165Z,17.84
2018-06-10T23:12:03.520Z,17.82
2018-06-10T23:14:31.821Z,17.77
2018-06-10T23:17:00.150Z,17.77
2018-06-10T23:19:28.477Z,17.74
2018-06-10T23:21:56.807Z,17.70
2018-06-10T23:24:25.145Z,17.61
2018-06-10T23:26:53.470Z,17.54
2018-06-10T23:29:21.793Z,17.49
2018-06-10T23:31:51.121Z,17.45
2018-06-10T23:34:19.452Z,17.43
2018-06-10T23:36:48.670Z,17.41
2018-06-10T23:39:18.014Z,17.40
2018-06-10T23:41:47.224Z,17.37
2018-06-10T23:44:15.585Z,17.31
2018-06-10T23:46:44.841Z,17.28
2018-06-10T23:49:15.589Z,17.22
2018-06-10T23:51:45.634Z,17.25
2018-06-10T23:54:14.088Z,17.20
2018-06-10T23:56:42.415Z,17.23
2018-06-10T23:59:10.757Z,17.32
